sensor_id;sensor_type;location;lat;lon;timestamp;P1;durP1;ratioP1;P2;durP2;ratioP2
18754;SDS011;35061;47.664;9.166;2022-11-20T00:01:28;3.30;;;3.00;;
18754;SDS011;35061;47.664;9.166;2022-11-20T00:03:56;3.60;;;3.10;;
18754;SDS011;35061;47.664;9.166;2022-11-20T00:06:25;4.10;;;3.65;;
18754;SDS011;35061;47.664;9.166;2022-11-20T00:08:55;6.78;;;4.30;;
18754;SDS011;35061;47.664;9.166;2022-11-20T00:11:25;4.20;;;3.42;;
18754;SDS011;35061;47.664;9.166;2022-11-20T00:13:56;4.93;;;3.10;;
18754;SDS011;35061;47.664;9.166;2022-11-20T00:16:26;4.82;;;3.58;;
18754;SDS011;35061;47.664;9.166;2022-11-20T00:18:55;5.15;;;3.05;;
18754;SDS011;35061;47.664;9.166;2022-11-20T00:21:24;3.72;;;3.10;;
18754;SDS011;35061;47.664;9.166;2022-11-20T00:23:53;3.67;;;2.92;;
18754;SDS011;35061;47.664;9.166;2022-11-20T00:26:23;5.07;;;3.30;;
18754;SDS011;35061;47.664;9.166;2022-11-20T00:28:59;4.68;;;3.42;;
18754;SDS011;35061;47.664;9.166;2022-11-20T00:31:28;4.87;;;3.10;;
18754;SDS011;35061;47.664;9.166;2022-11-20T00:33:57;4.45;;;2.92;;
18754;SDS011;35061;47.664;9.166;2022-11-20T00:36:25;3.60;;;3.12;;
18754;SDS011;35061;47.664;9.166;2022-11-20T00:38:55;5.05;;;2.78;;
18754;SDS011;35061;47.664;9.166;2022-11-20T00:41:24;4.18;;;3.10;;
18754;SDS011;35061;47.664;9.166;2022-11-20T00:43:54;3.40;;;2.75;;
18754;SDS011;35061;47.664;9.166;2022-11-20T00:46:23;5.47;;;3.62;;
18754;SDS011;35061;47.664;9.166;2022-11-20T00:48:53;3.75;;;3.45;;
18754;SDS011;35061;47.664;9.166;2022-11-20T00:51:22;4.68;;;3.10;;
18754;SDS011;35061;47.664;9.166;2022-11-20T00:53:52;8.07;;;3.17;;
18754;SDS011;35061;47.664;9.166;2022-11-20T00:56:22;3.97;;;2.83;;
18754;SDS011;35061;47.664;9.166;2022-11-20T00:58:50;5.30;;;2.95;;
18754;SDS011;35061;47.664;9.166;2022-11-20T01:01:22;4.10;;;3.70;;
18754;SDS011;35061;47.664;9.166;2022-11-20T01:03:52;2.90;;;2.65;;
18754;SDS011;35061;47.664;9.166;2022-11-20T01:06:22;3.55;;;3.05;;
18754;SDS011;35061;47.664;9.166;2022-11-20T01:08:52;3.95;;;3.30;;
18754;SDS011;35061;47.664;9.166;2022-11-20T01:11:40;3.40;;;2.95;;
18754;SDS011;35061;47.664;9.166;2022-11-20T01:14:14;5.12;;;2.72;;
18754;SDS011;35061;47.664;9.166;2022-11-20T01:16:44;3.40;;;3.05;;
18754;SDS011;35061;47.664;9.166;2022-11-20T01:19:18;4.07;;;3.22;;
18754;SDS011;35061;47.664;9.166;2022-11-20T01:21:49;3.87;;;3.22;;
18754;SDS011;35061;47.664;9.166;2022-11-20T01:24:19;3.83;;;3.25;;
18754;SDS011;35061;47.664;9.166;2022-11-20T01:26:49;3.28;;;2.72;;
18754;SDS011;35061;47.664;9.166;2022-11-20T01:29:24;3.45;;;2.62;;
18754;SDS011;35061;47.664;9.166;2022-11-20T01:31:52;5.20;;;3.05;;
18754;SDS011;35061;47.664;9.166;2022-11-20T01:34:20;3.42;;;2.70;;
18754;SDS011;35061;47.664;9.166;2022-11-20T01:36:49;3.58;;;3.17;;
18754;SDS011;35061;47.664;9.166;2022-11-20T01:39:19;4.15;;;2.92;;
18754;SDS011;35061;47.664;9.166;2022-11-20T01:41:49;3.25;;;2.83;;
18754;SDS011;35061;47.664;9.166;2022-11-20T01:44:57;3.85;;;2.50;;
18754;SDS011;35061;47.664;9.166;2022-11-20T01:47:31;5.25;;;3.05;;
18754;SDS011;35061;47.664;9.166;2022-11-20T01:52:42;3.55;;;3.00;;
18754;SDS011;35061;47.664;9.166;2022-11-20T01:55:14;2.87;;;2.67;;
18754;SDS011;35061;47.664;9.166;2022-11-20T01:57:49;4.32;;;3.05;;
18754;SDS011;35061;47.664;9.166;2022-11-20T02:00:18;5.25;;;2.70;;
18754;SDS011;35061;47.664;9.166;2022-11-20T02:02:49;3.50;;;2.97;;
18754;SDS011;35061;47.664;9.166;2022-11-20T02:05:27;3.67;;;2.95;;
18754;SDS011;35061;47.664;9.166;2022-11-20T02:08:00;2.75;;;2.55;;
18754;SDS011;35061;47.664;9.166;2022-11-20T02:10:30;3.83;;;2.97;;
18754;SDS011;35061;47.664;9.166;2022-11-20T02:12:59;2.62;;;2.42;;
18754;SDS011;35061;47.664;9.166;2022-11-20T02:15:46;3.72;;;2.50;;
18754;SDS011;35061;47.664;9.166;2022-11-20T02:18:14;2.92;;;2.60;;
18754;SDS011;35061;47.664;9.166;2022-11-20T02:20:47;3.03;;;2.47;;
18754;SDS011;35061;47.664;9.166;2022-11-20T02:25:53;5.65;;;3.17;;
18754;SDS011;35061;47.664;9.166;2022-11-20T02:28:22;3.05;;;2.33;;
18754;SDS011;35061;47.664;9.166;2022-11-20T02:30:50;4.95;;;2.30;;
18754;SDS011;35061;47.664;9.166;2022-11-20T02:33:18;3.00;;;2.67;;
18754;SDS011;35061;47.664;9.166;2022-11-20T02:35:46;2.50;;;2.30;;
18754;SDS011;35061;47.664;9.166;2022-11-20T02:38:14;4.30;;;2.70;;
18754;SDS011;35061;47.664;9.166;2022-11-20T02:40:42;2.45;;;2.25;;
18754;SDS011;35061;47.664;9.166;2022-11-20T02:43:10;2.87;;;2.25;;
18754;SDS011;35061;47.664;9.166;2022-11-20T02:45:38;2.55;;;2.30;;
18754;SDS011;35061;47.664;9.166;2022-11-20T02:48:06;3.87;;;2.33;;
18754;SDS011;35061;47.664;9.166;2022-11-20T02:50:38;2.00;;;1.87;;
18754;SDS011;35061;47.664;9.166;2022-11-20T02:53:07;2.17;;;1.98;;
18754;SDS011;35061;47.664;9.166;2022-11-20T02:55:35;2.83;;;2.37;;
18754;SDS011;35061;47.664;9.166;2022-11-20T02:58:03;2.60;;;2.40;;
18754;SDS011;35061;47.664;9.166;2022-11-20T03:00:31;4.18;;;2.17;;
18754;SDS011;35061;47.664;9.166;2022-11-20T03:02:59;4.35;;;2.10;;
18754;SDS011;35061;47.664;9.166;2022-11-20T03:05:27;2.35;;;2.15;;
18754;SDS011;35061;47.664;9.166;2022-11-20T03:07:54;2.92;;;2.08;;
18754;SDS011;35061;47.664;9.166;2022-11-20T03:10:22;2.70;;;2.28;;
18754;SDS011;35061;47.664;9.166;2022-11-20T03:12:56;2.20;;;2.00;;
18754;SDS011;35061;47.664;9.166;2022-11-20T03:15:24;2.90;;;2.20;;
18754;SDS011;35061;47.664;9.166;2022-11-20T03:17:53;2.45;;;2.05;;
18754;SDS011;35061;47.664;9.166;2022-11-20T03:20:22;1.98;;;1.80;;
18754;SDS011;35061;47.664;9.166;2022-11-20T03:22:50;2.83;;;2.03;;
18754;SDS011;35061;47.664;9.166;2022-11-20T03:25:18;2.55;;;2.05;;
18754;SDS011;35061;47.664;9.166;2022-11-20T03:27:45;4.53;;;2.30;;
18754;SDS011;35061;47.664;9.166;2022-11-20T03:30:13;3.72;;;2.25;;
18754;SDS011;35061;47.664;9.166;2022-11-20T03:32:42;3.47;;;2.40;;
18754;SDS011;35061;47.664;9.166;2022-11-20T03:35:09;3.17;;;2.30;;
18754;SDS011;35061;47.664;9.166;2022-11-20T03:37:37;4.07;;;2.62;;
18754;SDS011;35061;47.664;9.166;2022-11-20T03:40:05;3.25;;;2.15;;
18754;SDS011;35061;47.664;9.166;2022-11-20T03:42:33;3.12;;;2.50;;
18754;SDS011;35061;47.664;9.166;2022-11-20T03:45:13;3.03;;;2.78;;
18754;SDS011;35061;47.664;9.166;2022-11-20T03:47:45;4.53;;;2.65;;
18754;SDS011;35061;47.664;9.166;2022-11-20T03:50:13;2.65;;;2.45;;
18754;SDS011;35061;47.664;9.166;2022-11-20T03:52:41;2.50;;;2.30;;
18754;SDS011;35061;47.664;9.166;2022-11-20T03:55:09;2.55;;;2.30;;
18754;SDS011;35061;47.664;9.166;2022-11-20T03:57:37;2.42;;;2.20;;
18754;SDS011;35061;47.664;9.166;2022-11-20T04:00:05;2.78;;;2.40;;
18754;SDS011;35061;47.664;9.166;2022-11-20T04:02:33;2.70;;;2.37;;
18754;SDS011;35061;47.664;9.166;2022-11-20T04:05:01;2.50;;;2.15;;
18754;SDS011;35061;47.664;9.166;2022-11-20T04:07:29;3.78;;;2.95;;
18754;SDS011;35061;47.664;9.166;2022-11-20T04:09:56;3.85;;;2.72;;
18754;SDS011;35061;47.664;9.166;2022-11-20T04:12:24;4.90;;;3.05;;
18754;SDS011;35061;47.664;9.166;2022-11-20T04:14:52;3.10;;;2.72;;
18754;SDS011;35061;47.664;9.166;2022-11-20T04:17:19;3.42;;;2.40;;
18754;SDS011;35061;47.664;9.166;2022-11-20T04:19:47;2.62;;;2.42;;
18754;SDS011;35061;47.664;9.166;2022-11-20T04:22:15;2.85;;;2.47;;
18754;SDS011;35061;47.664;9.166;2022-11-20T04:24:42;3.20;;;2.50;;
18754;SDS011;35061;47.664;9.166;2022-11-20T04:27:10;3.15;;;2.03;;
18754;SDS011;35061;47.664;9.166;2022-11-20T04:29:38;4.03;;;2.28;;
18754;SDS011;35061;47.664;9.166;2022-11-20T04:32:05;3.10;;;2.20;;
18754;SDS011;35061;47.664;9.166;2022-11-20T04:34:33;2.47;;;2.10;;
18754;SDS011;35061;47.664;9.166;2022-11-20T04:37:01;2.92;;;2.10;;
18754;SDS011;35061;47.664;9.166;2022-11-20T04:39:29;3.20;;;2.90;;
18754;SDS011;35061;47.664;9.166;2022-11-20T04:41:56;4.25;;;2.58;;
18754;SDS011;35061;47.664;9.166;2022-11-20T04:44:42;3.50;;;2.53;;
18754;SDS011;35061;47.664;9.166;2022-11-20T04:47:10;2.22;;;2.03;;
18754;SDS011;35061;47.664;9.166;2022-11-20T04:49:38;2.78;;;2.17;;
18754;SDS011;35061;47.664;9.166;2022-11-20T04:52:05;2.62;;;2.12;;
18754;SDS011;35061;47.664;9.166;2022-11-20T04:54:33;2.45;;;2.25;;
18754;SDS011;35061;47.664;9.166;2022-11-20T04:57:01;4.28;;;2.33;;
18754;SDS011;35061;47.664;9.166;2022-11-20T04:59:29;2.17;;;1.98;;
18754;SDS011;35061;47.664;9.166;2022-11-20T05:01:57;2.55;;;2.35;;
18754;SDS011;35061;47.664;9.166;2022-11-20T05:04:24;4.57;;;2.20;;
18754;SDS011;35061;47.664;9.166;2022-11-20T05:06:52;2.12;;;1.92;;
18754;SDS011;35061;47.664;9.166;2022-11-20T05:09:20;2.50;;;2.08;;
18754;SDS011;35061;47.664;9.166;2022-11-20T05:11:48;2.58;;;2.30;;
18754;SDS011;35061;47.664;9.166;2022-11-20T05:14:17;2.70;;;2.17;;
18754;SDS011;35061;47.664;9.166;2022-11-20T05:16:44;4.18;;;2.37;;
18754;SDS011;35061;47.664;9.166;2022-11-20T05:19:12;3.10;;;1.90;;
18754;SDS011;35061;47.664;9.166;2022-11-20T05:21:40;4.03;;;2.42;;
18754;SDS011;35061;47.664;9.166;2022-11-20T05:24:08;2.67;;;2.03;;
18754;SDS011;35061;47.664;9.166;2022-11-20T05:26:35;2.25;;;2.05;;
18754;SDS011;35061;47.664;9.166;2022-11-20T05:29:03;2.70;;;1.58;;
18754;SDS011;35061;47.664;9.166;2022-11-20T05:31:31;2.22;;;2.00;;
18754;SDS011;35061;47.664;9.166;2022-11-20T05:33:59;2.97;;;1.80;;
18754;SDS011;35061;47.664;9.166;2022-11-20T05:36:26;2.53;;;1.87;;
18754;SDS011;35061;47.664;9.166;2022-11-20T05:38:54;4.65;;;1.70;;
18754;SDS011;35061;47.664;9.166;2022-11-20T05:41:27;1.73;;;1.62;;
18754;SDS011;35061;47.664;9.166;2022-11-20T05:43:55;1.90;;;1.80;;
18754;SDS011;35061;47.664;9.166;2022-11-20T05:46:23;1.62;;;1.52;;
18754;SDS011;35061;47.664;9.166;2022-11-20T05:48:54;3.58;;;1.90;;
18754;SDS011;35061;47.664;9.166;2022-11-20T05:51:23;1.98;;;1.80;;
18754;SDS011;35061;47.664;9.166;2022-11-20T05:53:51;2.05;;;1.85;;
18754;SDS011;35061;47.664;9.166;2022-11-20T05:56:20;2.10;;;1.80;;
18754;SDS011;35061;47.664;9.166;2022-11-20T05:58:49;2.12;;;1.95;;
18754;SDS011;35061;47.664;9.166;2022-11-20T06:01:21;2.33;;;1.95;;
18754;SDS011;35061;47.664;9.166;2022-11-20T06:03:50;3.42;;;1.90;;
18754;SDS011;35061;47.664;9.166;2022-11-20T06:06:19;2.55;;;1.83;;
18754;SDS011;35061;47.664;9.166;2022-11-20T06:08:47;3.35;;;2.22;;
18754;SDS011;35061;47.664;9.166;2022-11-20T06:11:16;2.97;;;1.83;;
18754;SDS011;35061;47.664;9.166;2022-11-20T06:13:44;2.25;;;1.77;;
18754;SDS011;35061;47.664;9.166;2022-11-20T06:16:13;2.37;;;1.90;;
18754;SDS011;35061;47.664;9.166;2022-11-20T06:18:43;2.62;;;1.50;;
18754;SDS011;35061;47.664;9.166;2022-11-20T06:21:15;2.97;;;1.77;;
18754;SDS011;35061;47.664;9.166;2022-11-20T06:23:44;2.58;;;2.00;;
18754;SDS011;35061;47.664;9.166;2022-11-20T06:26:14;2.97;;;1.98;;
18754;SDS011;35061;47.664;9.166;2022-11-20T06:28:46;2.53;;;2.30;;
18754;SDS011;35061;47.664;9.166;2022-11-20T06:31:16;2.25;;;1.70;;
18754;SDS011;35061;47.664;9.166;2022-11-20T06:33:45;1.67;;;1.52;;
18754;SDS011;35061;47.664;9.166;2022-11-20T06:36:13;2.25;;;2.05;;
18754;SDS011;35061;47.664;9.166;2022-11-20T06:38:43;4.35;;;2.03;;
18754;SDS011;35061;47.664;9.166;2022-11-20T06:41:12;2.00;;;1.80;;
18754;SDS011;35061;47.664;9.166;2022-11-20T06:43:41;3.70;;;2.28;;
18754;SDS011;35061;47.664;9.166;2022-11-20T06:46:10;4.25;;;2.15;;
18754;SDS011;35061;47.664;9.166;2022-11-20T06:48:39;2.08;;;1.83;;
18754;SDS011;35061;47.664;9.166;2022-11-20T06:51:07;2.72;;;1.65;;
18754;SDS011;35061;47.664;9.166;2022-11-20T06:53:35;2.40;;;1.92;;
18754;SDS011;35061;47.664;9.166;2022-11-20T06:56:04;2.55;;;2.17;;
18754;SDS011;35061;47.664;9.166;2022-11-20T06:58:33;2.92;;;1.70;;
18754;SDS011;35061;47.664;9.166;2022-11-20T07:01:06;2.00;;;1.80;;
18754;SDS011;35061;47.664;9.166;2022-11-20T07:03:36;3.83;;;1.75;;
18754;SDS011;35061;47.664;9.166;2022-11-20T07:06:04;2.70;;;2.30;;
18754;SDS011;35061;47.664;9.166;2022-11-20T07:08:33;2.15;;;1.90;;
18754;SDS011;35061;47.664;9.166;2022-11-20T07:11:03;2.97;;;2.17;;
18754;SDS011;35061;47.664;9.166;2022-11-20T07:13:32;2.58;;;2.03;;
18754;SDS011;35061;47.664;9.166;2022-11-20T07:16:01;2.30;;;1.75;;
18754;SDS011;35061;47.664;9.166;2022-11-20T07:18:30;2.55;;;2.05;;
18754;SDS011;35061;47.664;9.166;2022-11-20T07:21:02;2.45;;;2.22;;
18754;SDS011;35061;47.664;9.166;2022-11-20T07:23:30;2.92;;;1.80;;
18754;SDS011;35061;47.664;9.166;2022-11-20T07:26:02;3.12;;;2.30;;
18754;SDS011;35061;47.664;9.166;2022-11-20T07:28:36;2.20;;;1.90;;
18754;SDS011;35061;47.664;9.166;2022-11-20T07:31:05;2.45;;;2.25;;
18754;SDS011;35061;47.664;9.166;2022-11-20T07:33:34;3.25;;;2.45;;
18754;SDS011;35061;47.664;9.166;2022-11-20T07:36:01;2.40;;;2.20;;
18754;SDS011;35061;47.664;9.166;2022-11-20T07:38:29;2.60;;;1.52;;
18754;SDS011;35061;47.664;9.166;2022-11-20T07:40:57;2.17;;;1.67;;
18754;SDS011;35061;47.664;9.166;2022-11-20T07:43:25;1.92;;;1.55;;
18754;SDS011;35061;47.664;9.166;2022-11-20T07:45:58;2.62;;;1.98;;
18754;SDS011;35061;47.664;9.166;2022-11-20T07:48:26;2.03;;;1.67;;
18754;SDS011;35061;47.664;9.166;2022-11-20T07:50:54;2.28;;;1.80;;
18754;SDS011;35061;47.664;9.166;2022-11-20T07:53:24;3.17;;;1.87;;
18754;SDS011;35061;47.664;9.166;2022-11-20T07:55:51;2.75;;;1.75;;
18754;SDS011;35061;47.664;9.166;2022-11-20T07:58:20;2.15;;;1.90;;
18754;SDS011;35061;47.664;9.166;2022-11-20T08:00:48;2.35;;;1.92;;
18754;SDS011;35061;47.664;9.166;2022-11-20T08:03:16;2.67;;;1.67;;
18754;SDS011;35061;47.664;9.166;2022-11-20T08:05:49;4.03;;;1.60;;
18754;SDS011;35061;47.664;9.166;2022-11-20T08:08:17;2.65;;;1.50;;
18754;SDS011;35061;47.664;9.166;2022-11-20T08:10:45;2.20;;;1.92;;
18754;SDS011;35061;47.664;9.166;2022-11-20T08:13:13;2.40;;;1.98;;
18754;SDS011;35061;47.664;9.166;2022-11-20T08:15:59;2.20;;;1.40;;
18754;SDS011;35061;47.664;9.166;2022-11-20T08:18:26;1.42;;;1.20;;
18754;SDS011;35061;47.664;9.166;2022-11-20T08:20:58;1.70;;;1.40;;
18754;SDS011;35061;47.664;9.166;2022-11-20T08:23:29;3.28;;;1.90;;
18754;SDS011;35061;47.664;9.166;2022-11-20T08:25:57;2.00;;;1.50;;
18754;SDS011;35061;47.664;9.166;2022-11-20T08:28:25;2.83;;;1.70;;
18754;SDS011;35061;47.664;9.166;2022-11-20T08:30:57;4.10;;;1.60;;
18754;SDS011;35061;47.664;9.166;2022-11-20T08:33:26;1.65;;;1.48;;
18754;SDS011;35061;47.664;9.166;2022-11-20T08:35:57;2.10;;;1.70;;
18754;SDS011;35061;47.664;9.166;2022-11-20T08:38:28;1.52;;;1.42;;
18754;SDS011;35061;47.664;9.166;2022-11-20T08:41:00;2.65;;;1.75;;
18754;SDS011;35061;47.664;9.166;2022-11-20T08:43:49;2.35;;;1.48;;
18754;SDS011;35061;47.664;9.166;2022-11-20T08:46:18;2.70;;;1.62;;
18754;SDS011;35061;47.664;9.166;2022-11-20T08:48:46;3.03;;;2.08;;
18754;SDS011;35061;47.664;9.166;2022-11-20T08:51:14;2.70;;;1.83;;
18754;SDS011;35061;47.664;9.166;2022-11-20T08:53:42;3.58;;;2.78;;
18754;SDS011;35061;47.664;9.166;2022-11-20T08:56:10;2.15;;;1.87;;
18754;SDS011;35061;47.664;9.166;2022-11-20T08:58:38;2.47;;;1.90;;
18754;SDS011;35061;47.664;9.166;2022-11-20T09:01:26;1.95;;;1.77;;
18754;SDS011;35061;47.664;9.166;2022-11-20T09:03:55;2.10;;;1.90;;
18754;SDS011;35061;47.664;9.166;2022-11-20T09:06:26;6.20;;;2.80;;
18754;SDS011;35061;47.664;9.166;2022-11-20T09:08:54;3.97;;;2.20;;
18754;SDS011;35061;47.664;9.166;2022-11-20T09:11:28;4.22;;;2.08;;
18754;SDS011;35061;47.664;9.166;2022-11-20T09:13:56;1.73;;;1.62;;
18754;SDS011;35061;47.664;9.166;2022-11-20T09:16:24;1.80;;;1.67;;
18754;SDS011;35061;47.664;9.166;2022-11-20T09:18:51;1.50;;;1.40;;
18754;SDS011;35061;47.664;9.166;2022-11-20T09:21:39;2.65;;;1.90;;
18754;SDS011;35061;47.664;9.166;2022-11-20T09:24:07;2.35;;;1.27;;
18754;SDS011;35061;47.664;9.166;2022-11-20T09:26:35;2.58;;;1.70;;
18754;SDS011;35061;47.664;9.166;2022-11-20T09:29:02;1.73;;;1.42;;
18754;SDS011;35061;47.664;9.166;2022-11-20T09:31:30;2.75;;;1.75;;
18754;SDS011;35061;47.664;9.166;2022-11-20T09:33:58;1.73;;;1.62;;
18754;SDS011;35061;47.664;9.166;2022-11-20T09:36:26;2.20;;;1.70;;
18754;SDS011;35061;47.664;9.166;2022-11-20T09:38:53;1.50;;;1.40;;
18754;SDS011;35061;47.664;9.166;2022-11-20T09:46:58;1.50;;;1.40;;
18754;SDS011;35061;47.664;9.166;2022-11-20T09:54:48;1.50;;;1.40;;
18754;SDS011;35061;47.664;9.166;2022-11-20T09:57:19;1.10;;;1.10;;
18754;SDS011;35061;47.664;9.166;2022-11-20T09:59:53;2.97;;;1.48;;
18754;SDS011;35061;47.664;9.166;2022-11-20T10:02:29;2.47;;;1.92;;
18754;SDS011;35061;47.664;9.166;2022-11-20T10:05:11;1.85;;;1.55;;
18754;SDS011;35061;47.664;9.166;2022-11-20T10:10:40;1.42;;;1.30;;
18754;SDS011;35061;47.664;9.166;2022-11-20T10:13:45;3.00;;;1.30;;
18754;SDS011;35061;47.664;9.166;2022-11-20T10:24:57;2.37;;;1.12;;
18754;SDS011;35061;47.664;9.166;2022-11-20T10:30:43;1.20;;;1.00;;
18754;SDS011;35061;47.664;9.166;2022-11-20T10:33:15;1.50;;;1.40;;
18754;SDS011;35061;47.664;9.166;2022-11-20T10:35:55;1.75;;;1.25;;
18754;SDS011;35061;47.664;9.166;2022-11-20T10:38:28;1.45;;;1.33;;
18754;SDS011;35061;47.664;9.166;2022-11-20T10:41:02;1.60;;;1.40;;
18754;SDS011;35061;47.664;9.166;2022-11-20T10:43:59;1.37;;;1.23;;
18754;SDS011;35061;47.664;9.166;2022-11-20T10:46:40;1.42;;;1.20;;
18754;SDS011;35061;47.664;9.166;2022-11-20T10:49:15;2.00;;;1.75;;
18754;SDS011;35061;47.664;9.166;2022-11-20T10:57:30;1.65;;;1.55;;
18754;SDS011;35061;47.664;9.166;2022-11-20T11:02:32;1.42;;;1.20;;
18754;SDS011;35061;47.664;9.166;2022-11-20T11:05:55;3.35;;;1.20;;
18754;SDS011;35061;47.664;9.166;2022-11-20T11:08:35;0.93;;;0.93;;
18754;SDS011;35061;47.664;9.166;2022-11-20T11:13:36;1.42;;;1.00;;
18754;SDS011;35061;47.664;9.166;2022-11-20T11:16:04;1.55;;;1.00;;
18754;SDS011;35061;47.664;9.166;2022-11-20T11:18:33;2.30;;;1.10;;
18754;SDS011;35061;47.664;9.166;2022-11-20T11:21:03;2.28;;;1.25;;
18754;SDS011;35061;47.664;9.166;2022-11-20T11:23:33;1.40;;;1.23;;
18754;SDS011;35061;47.664;9.166;2022-11-20T11:26:04;1.40;;;1.20;;
18754;SDS011;35061;47.664;9.166;2022-11-20T11:28:34;2.17;;;1.17;;
18754;SDS011;35061;47.664;9.166;2022-11-20T11:31:02;2.47;;;1.20;;
18754;SDS011;35061;47.664;9.166;2022-11-20T11:33:30;3.05;;;1.40;;
18754;SDS011;35061;47.664;9.166;2022-11-20T11:36:03;2.37;;;1.30;;
18754;SDS011;35061;47.664;9.166;2022-11-20T11:38:44;1.20;;;1.10;;
18754;SDS011;35061;47.664;9.166;2022-11-20T11:41:16;1.77;;;1.17;;
18754;SDS011;35061;47.664;9.166;2022-11-20T11:43:52;1.83;;;1.02;;
18754;SDS011;35061;47.664;9.166;2022-11-20T11:46:41;1.27;;;1.17;;
18754;SDS011;35061;47.664;9.166;2022-11-20T11:49:17;1.33;;;1.20;;
18754;SDS011;35061;47.664;9.166;2022-11-20T11:51:51;2.10;;;1.20;;
18754;SDS011;35061;47.664;9.166;2022-11-20T11:54:40;2.53;;;1.05;;
18754;SDS011;35061;47.664;9.166;2022-11-20T11:57:20;1.70;;;1.30;;
18754;SDS011;35061;47.664;9.166;2022-11-20T12:00:15;2.03;;;1.15;;
18754;SDS011;35061;47.664;9.166;2022-11-20T12:05:19;1.58;;;1.48;;
18754;SDS011;35061;47.664;9.166;2022-11-20T12:08:04;2.80;;;1.45;;
18754;SDS011;35061;47.664;9.166;2022-11-20T12:10:46;1.00;;;1.00;;
18754;SDS011;35061;47.664;9.166;2022-11-20T12:15:53;1.50;;;1.40;;
18754;SDS011;35061;47.664;9.166;2022-11-20T12:18:22;3.10;;;1.30;;
18754;SDS011;35061;47.664;9.166;2022-11-20T12:21:02;2.12;;;1.40;;
18754;SDS011;35061;47.664;9.166;2022-11-20T12:37:30;1.60;;;1.50;;
18754;SDS011;35061;47.664;9.166;2022-11-20T12:48:41;2.03;;;1.45;;
18754;SDS011;35061;47.664;9.166;2022-11-20T12:51:38;3.35;;;1.40;;
18754;SDS011;35061;47.664;9.166;2022-11-20T12:57:01;1.85;;;1.40;;
18754;SDS011;35061;47.664;9.166;2022-11-20T13:08:20;2.20;;;1.50;;
18754;SDS011;35061;47.664;9.166;2022-11-20T13:10:54;2.08;;;1.87;;
18754;SDS011;35061;47.664;9.166;2022-11-20T13:13:27;1.48;;;1.30;;
18754;SDS011;35061;47.664;9.166;2022-11-20T13:16:05;2.17;;;1.23;;
18754;SDS011;35061;47.664;9.166;2022-11-20T13:18:39;2.47;;;1.23;;
18754;SDS011;35061;47.664;9.166;2022-11-20T13:21:13;1.17;;;1.00;;
18754;SDS011;35061;47.664;9.166;2022-11-20T13:23:46;2.35;;;1.12;;
18754;SDS011;35061;47.664;9.166;2022-11-20T13:26:21;1.62;;;1.23;;
18754;SDS011;35061;47.664;9.166;2022-11-20T13:31:40;1.40;;;1.20;;
18754;SDS011;35061;47.664;9.166;2022-11-20T13:34:23;1.58;;;1.48;;
18754;SDS011;35061;47.664;9.166;2022-11-20T13:36:54;1.50;;;1.40;;
18754;SDS011;35061;47.664;9.166;2022-11-20T13:39:27;1.48;;;1.15;;
18754;SDS011;35061;47.664;9.166;2022-11-20T13:41:58;1.70;;;1.30;;
18754;SDS011;35061;47.664;9.166;2022-11-20T13:45:11;2.95;;;1.35;;
18754;SDS011;35061;47.664;9.166;2022-11-20T13:47:24;1.40;;;1.30;;
18754;SDS011;35061;47.664;9.166;2022-11-20T13:49:55;2.78;;;1.40;;
18754;SDS011;35061;47.664;9.166;2022-11-20T14:01:15;1.12;;;1.00;;
18754;SDS011;35061;47.664;9.166;2022-11-20T14:03:47;1.27;;;1.17;;
18754;SDS011;35061;47.664;9.166;2022-11-20T14:06:32;2.70;;;1.20;;
18754;SDS011;35061;47.664;9.166;2022-11-20T14:09:30;2.00;;;1.05;;
18754;SDS011;35061;47.664;9.166;2022-11-20T14:12:01;2.60;;;1.48;;
18754;SDS011;35061;47.664;9.166;2022-11-20T14:14:30;1.50;;;1.40;;
18754;SDS011;35061;47.664;9.166;2022-11-20T14:17:07;1.00;;;1.00;;
18754;SDS011;35061;47.664;9.166;2022-11-20T14:19:43;0.95;;;0.95;;
18754;SDS011;35061;47.664;9.166;2022-11-20T14:24:41;2.35;;;1.12;;
18754;SDS011;35061;47.664;9.166;2022-11-20T14:27:11;1.02;;;0.93;;
18754;SDS011;35061;47.664;9.166;2022-11-20T14:29:45;1.77;;;1.00;;
18754;SDS011;35061;47.664;9.166;2022-11-20T14:32:15;1.15;;;1.05;;
18754;SDS011;35061;47.664;9.166;2022-11-20T14:34:47;1.52;;;1.00;;
18754;SDS011;35061;47.664;9.166;2022-11-20T14:37:18;1.17;;;1.00;;
18754;SDS011;35061;47.664;9.166;2022-11-20T14:39:52;2.90;;;1.00;;
18754;SDS011;35061;47.664;9.166;2022-11-20T14:42:23;3.00;;;0.85;;
18754;SDS011;35061;47.664;9.166;2022-11-20T14:44:55;1.48;;;1.20;;
18754;SDS011;35061;47.664;9.166;2022-11-20T14:47:25;2.15;;;1.02;;
18754;SDS011;35061;47.664;9.166;2022-11-20T14:49:56;0.98;;;0.90;;
18754;SDS011;35061;47.664;9.166;2022-11-20T14:52:30;1.12;;;1.02;;
18754;SDS011;35061;47.664;9.166;2022-11-20T14:54:58;1.35;;;0.80;;
18754;SDS011;35061;47.664;9.166;2022-11-20T14:57:27;2.20;;;1.10;;
18754;SDS011;35061;47.664;9.166;2022-11-20T15:02:43;2.62;;;1.00;;
18754;SDS011;35061;47.664;9.166;2022-11-20T15:05:13;2.25;;;1.00;;
18754;SDS011;35061;47.664;9.166;2022-11-20T15:07:46;1.67;;;1.30;;
18754;SDS011;35061;47.664;9.166;2022-11-20T15:10:25;2.47;;;0.90;;
18754;SDS011;35061;47.664;9.166;2022-11-20T15:12:57;1.83;;;1.20;;
18754;SDS011;35061;47.664;9.166;2022-11-20T15:15:40;1.77;;;1.23;;
18754;SDS011;35061;47.664;9.166;2022-11-20T15:18:20;1.60;;;1.12;;
18754;SDS011;35061;47.664;9.166;2022-11-20T15:20:55;4.28;;;1.98;;
18754;SDS011;35061;47.664;9.166;2022-11-20T15:23:25;1.50;;;1.20;;
18754;SDS011;35061;47.664;9.166;2022-11-20T15:25:53;1.85;;;1.23;;
18754;SDS011;35061;47.664;9.166;2022-11-20T15:28:32;1.35;;;1.25;;
18754;SDS011;35061;47.664;9.166;2022-11-20T15:31:01;2.25;;;1.58;;
18754;SDS011;35061;47.664;9.166;2022-11-20T15:33:31;1.48;;;1.30;;
18754;SDS011;35061;47.664;9.166;2022-11-20T15:35:59;3.00;;;1.42;;
18754;SDS011;35061;47.664;9.166;2022-11-20T15:38:27;1.70;;;1.60;;
18754;SDS011;35061;47.664;9.166;2022-11-20T15:40:55;1.95;;;1.77;;
18754;SDS011;35061;47.664;9.166;2022-11-20T15:43:23;2.05;;;1.40;;
18754;SDS011;35061;47.664;9.166;2022-11-20T15:45:51;1.67;;;1.58;;
18754;SDS011;35061;47.664;9.166;2022-11-20T15:48:32;1.40;;;1.30;;
18754;SDS011;35061;47.664;9.166;2022-11-20T15:53:55;2.15;;;1.50;;
18754;SDS011;35061;47.664;9.166;2022-11-20T15:56:24;1.95;;;1.40;;
18754;SDS011;35061;47.664;9.166;2022-11-20T15:58:52;3.17;;;1.92;;
18754;SDS011;35061;47.664;9.166;2022-11-20T16:01:20;1.85;;;1.52;;
18754;SDS011;35061;47.664;9.166;2022-11-20T16:03:49;2.25;;;1.85;;
18754;SDS011;35061;47.664;9.166;2022-11-20T16:06:17;3.95;;;2.10;;
18754;SDS011;35061;47.664;9.166;2022-11-20T16:08:45;3.75;;;2.10;;
18754;SDS011;35061;47.664;9.166;2022-11-20T16:11:13;3.47;;;2.42;;
18754;SDS011;35061;47.664;9.166;2022-11-20T16:13:43;2.33;;;2.00;;
18754;SDS011;35061;47.664;9.166;2022-11-20T16:16:31;2.42;;;1.85;;
18754;SDS011;35061;47.664;9.166;2022-11-20T16:19:00;1.90;;;1.70;;
18754;SDS011;35061;47.664;9.166;2022-11-20T16:21:28;2.70;;;2.10;;
18754;SDS011;35061;47.664;9.166;2022-11-20T16:24:01;2.50;;;1.92;;
18754;SDS011;35061;47.664;9.166;2022-11-20T16:26:31;2.75;;;1.70;;
18754;SDS011;35061;47.664;9.166;2022-11-20T16:29:00;2.58;;;1.92;;
18754;SDS011;35061;47.664;9.166;2022-11-20T16:31:29;2.25;;;2.05;;
18754;SDS011;35061;47.664;9.166;2022-11-20T16:33:58;2.40;;;1.70;;
18754;SDS011;35061;47.664;9.166;2022-11-20T16:36:35;3.20;;;2.05;;
18754;SDS011;35061;47.664;9.166;2022-11-20T16:39:03;3.83;;;1.92;;
18754;SDS011;35061;47.664;9.166;2022-11-20T16:41:32;1.83;;;1.70;;
18754;SDS011;35061;47.664;9.166;2022-11-20T16:44:01;1.83;;;1.60;;
18754;SDS011;35061;47.664;9.166;2022-11-20T16:46:33;2.00;;;1.80;;
18754;SDS011;35061;47.664;9.166;2022-11-20T16:49:03;2.78;;;1.92;;
18754;SDS011;35061;47.664;9.166;2022-11-20T16:51:35;3.22;;;2.10;;
18754;SDS011;35061;47.664;9.166;2022-11-20T16:54:04;4.07;;;2.28;;